Hauptseite
METAR-TAF:

METAR-TAF

Flughäfen :

Yap, Yap Island, Mikronesien

Breite: 09-29N, Länge: 138-05E, Höhe: 28 m

Beobachtung

Neuester Wetterbericht von vor 1 Stunde und 2 Minuten, um 04:53 UTC
Wind 7 kt aus Ost
Temperatur 31°C
Luftfeuchtigkeit 79%
Luftdruck 1008 hPa
Sichtweite: 19.3 km
Leicht bewölkt in der Höhe von 2000 ft
Durchbrochene Bewölkung in der Höhe von 30000 ft

METAR: PTYA 290453Z 09007KT 12SM FEW020 BKN300 31/27 A2978 RMK SLP086 T03120267

Zeit: 15:55 (05:55 UTC)

Prognose

Neuester Wetterbericht von vor 35 Minuten, um 05:20 UTC
Gültige Prognose vom 29 um 06 UTC bis 30 um 06 UTC
Wind 7 kt aus Ost
Sichtweite: 10 km
Aufgelockert bewölkt in der Höhe von 2000 ft
Durchbrochene Bewölkung in der Höhe von 30000 ft
Schauer in der Nähe

TAF: PTYA 290520Z 2906/3006 09007KT P6SM VCSH SCT020 BKN300

Wetterbeobachtungen und Prognosen von mehr als 4000 Flughäfen (METAR und TAF Bericht).

Die verfügbaren Stationen werden durch gelbe und rote Markierungen auf der Karte dargestellt.

Führen Sie die Maus auf sie, um den Namen der Station zu sehen.

Darauf klicken, um die Beobachtung von Wetterbeobachtungen und Prognosen zu sehen.

Um die Karte zu ändern : klicken Sie auf den grünen Tasten mit einem schwarzen Kreuz Zum Vergrößern, auf den grünen Button mit einem Gedankenstrich zu verkleinern, oder auf die grünen Pfeile für benachbarte Karten.


METAR-TAF: